sensor_id;sensor_type;location;lat;lon;timestamp;P1;durP1;ratioP1;P2;durP2;ratioP2
79361;SDS011;68830;47.566;19.012;2023-10-19T00:02:33;13.30;;;8.50;;
79361;SDS011;68830;47.566;19.012;2023-10-19T00:05:36;12.93;;;10.05;;
79361;SDS011;68830;47.566;19.012;2023-10-19T00:08:38;12.82;;;8.20;;
79361;SDS011;68830;47.566;19.012;2023-10-19T00:11:45;12.80;;;8.88;;
79361;SDS011;68830;47.566;19.012;2023-10-19T00:14:48;15.75;;;9.32;;
79361;SDS011;68830;47.566;19.012;2023-10-19T00:17:51;14.40;;;9.32;;
79361;SDS011;68830;47.566;19.012;2023-10-19T00:20:55;13.55;;;8.70;;
79361;SDS011;68830;47.566;19.012;2023-10-19T00:24:21;10.35;;;8.52;;
79361;SDS011;68830;47.566;19.012;2023-10-19T00:27:27;11.90;;;8.88;;
79361;SDS011;68830;47.566;19.012;2023-10-19T00:30:30;12.93;;;7.95;;
79361;SDS011;68830;47.566;19.012;2023-10-19T00:33:34;12.32;;;9.13;;
79361;SDS011;68830;47.566;19.012;2023-10-19T00:36:41;13.52;;;10.00;;
79361;SDS011;68830;47.566;19.012;2023-10-19T00:39:43;11.23;;;7.63;;
79361;SDS011;68830;47.566;19.012;2023-10-19T00:42:50;18.60;;;10.02;;
79361;SDS011;68830;47.566;19.012;2023-10-19T00:45:56;13.15;;;9.55;;
79361;SDS011;68830;47.566;19.012;2023-10-19T00:48:59;19.63;;;9.80;;
79361;SDS011;68830;47.566;19.012;2023-10-19T00:52:03;11.30;;;8.70;;
79361;SDS011;68830;47.566;19.012;2023-10-19T00:55:14;16.10;;;9.55;;
79361;SDS011;68830;47.566;19.012;2023-10-19T00:58:21;12.52;;;8.30;;
79361;SDS011;68830;47.566;19.012;2023-10-19T01:01:31;16.95;;;10.82;;
79361;SDS011;68830;47.566;19.012;2023-10-19T01:04:38;17.05;;;10.38;;
79361;SDS011;68830;47.566;19.012;2023-10-19T01:07:44;16.95;;;9.90;;
79361;SDS011;68830;47.566;19.012;2023-10-19T01:10:47;14.77;;;10.35;;
79361;SDS011;68830;47.566;19.012;2023-10-19T01:13:55;13.32;;;9.48;;
79361;SDS011;68830;47.566;19.012;2023-10-19T01:16:57;14.32;;;10.20;;
79361;SDS011;68830;47.566;19.012;2023-10-19T01:19:59;15.00;;;9.93;;
79361;SDS011;68830;47.566;19.012;2023-10-19T01:23:08;17.40;;;10.55;;
79361;SDS011;68830;47.566;19.012;2023-10-19T01:26:12;12.43;;;9.32;;
79361;SDS011;68830;47.566;19.012;2023-10-19T01:29:19;15.13;;;10.00;;
79361;SDS011;68830;47.566;19.012;2023-10-19T01:32:29;13.95;;;10.27;;
79361;SDS011;68830;47.566;19.012;2023-10-19T01:35:31;14.13;;;9.95;;
79361;SDS011;68830;47.566;19.012;2023-10-19T01:38:54;19.75;;;10.27;;
79361;SDS011;68830;47.566;19.012;2023-10-19T01:41:59;15.73;;;10.50;;
79361;SDS011;68830;47.566;19.012;2023-10-19T01:45:02;15.02;;;9.68;;
79361;SDS011;68830;47.566;19.012;2023-10-19T01:48:07;13.38;;;10.02;;
79361;SDS011;68830;47.566;19.012;2023-10-19T01:51:11;13.90;;;9.90;;
79361;SDS011;68830;47.566;19.012;2023-10-19T01:54:16;17.00;;;10.90;;
79361;SDS011;68830;47.566;19.012;2023-10-19T01:57:20;17.83;;;11.02;;
79361;SDS011;68830;47.566;19.012;2023-10-19T02:00:21;18.17;;;12.35;;
79361;SDS011;68830;47.566;19.012;2023-10-19T02:03:24;14.43;;;10.15;;
79361;SDS011;68830;47.566;19.012;2023-10-19T02:06:29;13.55;;;10.70;;
79361;SDS011;68830;47.566;19.012;2023-10-19T02:09:37;15.50;;;10.48;;
79361;SDS011;68830;47.566;19.012;2023-10-19T02:12:40;12.90;;;9.73;;
79361;SDS011;68830;47.566;19.012;2023-10-19T02:15:43;15.38;;;10.13;;
79361;SDS011;68830;47.566;19.012;2023-10-19T02:18:45;15.23;;;11.32;;
79361;SDS011;68830;47.566;19.012;2023-10-19T02:21:48;18.55;;;11.27;;
79361;SDS011;68830;47.566;19.012;2023-10-19T02:24:51;14.18;;;10.68;;
79361;SDS011;68830;47.566;19.012;2023-10-19T02:27:53;15.82;;;10.95;;
79361;SDS011;68830;47.566;19.012;2023-10-19T02:30:55;18.52;;;11.93;;
79361;SDS011;68830;47.566;19.012;2023-10-19T02:33:58;16.55;;;11.30;;
79361;SDS011;68830;47.566;19.012;2023-10-19T02:37:00;14.23;;;10.98;;
79361;SDS011;68830;47.566;19.012;2023-10-19T02:40:05;13.55;;;10.75;;
79361;SDS011;68830;47.566;19.012;2023-10-19T02:43:14;18.45;;;11.80;;
79361;SDS011;68830;47.566;19.012;2023-10-19T02:46:16;21.08;;;12.18;;
79361;SDS011;68830;47.566;19.012;2023-10-19T02:49:21;17.10;;;11.80;;
79361;SDS011;68830;47.566;19.012;2023-10-19T02:52:24;16.65;;;11.85;;
79361;SDS011;68830;47.566;19.012;2023-10-19T02:55:30;18.33;;;12.48;;
79361;SDS011;68830;47.566;19.012;2023-10-19T02:58:33;16.77;;;13.23;;
79361;SDS011;68830;47.566;19.012;2023-10-19T03:01:35;19.77;;;12.93;;
79361;SDS011;68830;47.566;19.012;2023-10-19T03:04:37;16.48;;;12.15;;
79361;SDS011;68830;47.566;19.012;2023-10-19T03:07:41;16.95;;;11.77;;
79361;SDS011;68830;47.566;19.012;2023-10-19T03:10:47;19.55;;;13.80;;
79361;SDS011;68830;47.566;19.012;2023-10-19T03:14:05;18.27;;;13.57;;
79361;SDS011;68830;47.566;19.012;2023-10-19T03:17:07;17.60;;;12.90;;
79361;SDS011;68830;47.566;19.012;2023-10-19T03:20:11;20.77;;;13.35;;
79361;SDS011;68830;47.566;19.012;2023-10-19T03:23:13;20.05;;;12.82;;
79361;SDS011;68830;47.566;19.012;2023-10-19T03:26:17;20.45;;;14.27;;
79361;SDS011;68830;47.566;19.012;2023-10-19T03:29:32;17.25;;;12.02;;
79361;SDS011;68830;47.566;19.012;2023-10-19T03:32:39;19.83;;;14.25;;
79361;SDS011;68830;47.566;19.012;2023-10-19T03:35:42;24.00;;;15.50;;
79361;SDS011;68830;47.566;19.012;2023-10-19T03:38:44;18.98;;;14.77;;
79361;SDS011;68830;47.566;19.012;2023-10-19T03:41:48;19.25;;;14.18;;
79361;SDS011;68830;47.566;19.012;2023-10-19T03:44:54;23.25;;;15.18;;
79361;SDS011;68830;47.566;19.012;2023-10-19T03:47:58;21.10;;;14.55;;
79361;SDS011;68830;47.566;19.012;2023-10-19T03:51:02;26.25;;;16.55;;
79361;SDS011;68830;47.566;19.012;2023-10-19T03:54:04;22.33;;;16.13;;
79361;SDS011;68830;47.566;19.012;2023-10-19T03:57:12;23.05;;;15.07;;
79361;SDS011;68830;47.566;19.012;2023-10-19T04:00:21;17.42;;;13.32;;
79361;SDS011;68830;47.566;19.012;2023-10-19T04:03:27;27.00;;;15.98;;
79361;SDS011;68830;47.566;19.012;2023-10-19T04:06:32;23.33;;;15.93;;
79361;SDS011;68830;47.566;19.012;2023-10-19T04:09:34;23.13;;;15.73;;
79361;SDS011;68830;47.566;19.012;2023-10-19T04:12:39;24.08;;;16.35;;
79361;SDS011;68830;47.566;19.012;2023-10-19T04:15:45;20.35;;;16.42;;
79361;SDS011;68830;47.566;19.012;2023-10-19T04:18:48;24.42;;;17.70;;
79361;SDS011;68830;47.566;19.012;2023-10-19T04:21:50;21.20;;;17.42;;
79361;SDS011;68830;47.566;19.012;2023-10-19T04:24:53;24.60;;;16.67;;
79361;SDS011;68830;47.566;19.012;2023-10-19T04:27:57;21.30;;;16.42;;
79361;SDS011;68830;47.566;19.012;2023-10-19T04:30:59;31.75;;;19.75;;
79361;SDS011;68830;47.566;19.012;2023-10-19T04:34:04;26.45;;;18.55;;
79361;SDS011;68830;47.566;19.012;2023-10-19T04:37:11;24.00;;;17.50;;
79361;SDS011;68830;47.566;19.012;2023-10-19T04:40:14;25.35;;;18.13;;
79361;SDS011;68830;47.566;19.012;2023-10-19T04:43:17;26.83;;;18.70;;
79361;SDS011;68830;47.566;19.012;2023-10-19T04:46:19;23.92;;;15.75;;
79361;SDS011;68830;47.566;19.012;2023-10-19T04:49:21;27.70;;;18.00;;
79361;SDS011;68830;47.566;19.012;2023-10-19T04:52:24;25.60;;;18.10;;
79361;SDS011;68830;47.566;19.012;2023-10-19T04:55:26;26.60;;;19.60;;
79361;SDS011;68830;47.566;19.012;2023-10-19T04:58:31;30.95;;;18.95;;
79361;SDS011;68830;47.566;19.012;2023-10-19T05:01:33;24.17;;;18.65;;
79361;SDS011;68830;47.566;19.012;2023-10-19T05:04:35;26.92;;;18.75;;
79361;SDS011;68830;47.566;19.012;2023-10-19T05:07:37;25.90;;;18.25;;
79361;SDS011;68830;47.566;19.012;2023-10-19T05:10:39;31.77;;;19.98;;
79361;SDS011;68830;47.566;19.012;2023-10-19T05:13:46;29.98;;;18.38;;
79361;SDS011;68830;47.566;19.012;2023-10-19T05:16:48;25.63;;;19.30;;
79361;SDS011;68830;47.566;19.012;2023-10-19T05:19:51;27.10;;;16.85;;
79361;SDS011;68830;47.566;19.012;2023-10-19T05:22:53;26.00;;;16.52;;
79361;SDS011;68830;47.566;19.012;2023-10-19T05:25:59;28.77;;;19.70;;
79361;SDS011;68830;47.566;19.012;2023-10-19T05:29:03;24.33;;;17.67;;
79361;SDS011;68830;47.566;19.012;2023-10-19T05:32:05;26.83;;;16.70;;
79361;SDS011;68830;47.566;19.012;2023-10-19T05:35:08;28.63;;;17.08;;
79361;SDS011;68830;47.566;19.012;2023-10-19T05:38:15;26.23;;;17.58;;
79361;SDS011;68830;47.566;19.012;2023-10-19T05:41:17;24.92;;;18.05;;
79361;SDS011;68830;47.566;19.012;2023-10-19T05:44:24;25.10;;;17.02;;
79361;SDS011;68830;47.566;19.012;2023-10-19T05:47:27;27.73;;;17.20;;
79361;SDS011;68830;47.566;19.012;2023-10-19T05:50:29;27.00;;;18.27;;
79361;SDS011;68830;47.566;19.012;2023-10-19T05:53:31;27.38;;;18.25;;
79361;SDS011;68830;47.566;19.012;2023-10-19T06:00:59;26.48;;;19.15;;
79361;SDS011;68830;47.566;19.012;2023-10-19T06:04:01;36.33;;;31.38;;
79361;SDS011;68830;47.566;19.012;2023-10-19T06:07:04;49.58;;;41.45;;
79361;SDS011;68830;47.566;19.012;2023-10-19T06:15:56;51.97;;;41.00;;
79361;SDS011;68830;47.566;19.012;2023-10-19T06:18:58;57.35;;;45.22;;
79361;SDS011;68830;47.566;19.012;2023-10-19T06:22:01;59.45;;;47.00;;
79361;SDS011;68830;47.566;19.012;2023-10-19T06:25:04;61.33;;;47.40;;
79361;SDS011;68830;47.566;19.012;2023-10-19T06:28:06;63.60;;;47.97;;
79361;SDS011;68830;47.566;19.012;2023-10-19T06:31:10;64.93;;;49.22;;
79361;SDS011;68830;47.566;19.012;2023-10-19T06:34:12;67.50;;;47.25;;
79361;SDS011;68830;47.566;19.012;2023-10-19T06:37:16;64.32;;;47.72;;
79361;SDS011;68830;47.566;19.012;2023-10-19T06:40:18;61.85;;;45.65;;
79361;SDS011;68830;47.566;19.012;2023-10-19T06:43:20;61.50;;;41.38;;
79361;SDS011;68830;47.566;19.012;2023-10-19T06:46:26;57.33;;;30.50;;
79361;SDS011;68830;47.566;19.012;2023-10-19T06:49:29;50.33;;;30.33;;
79361;SDS011;68830;47.566;19.012;2023-10-19T06:52:31;68.47;;;34.92;;
79361;SDS011;68830;47.566;19.012;2023-10-19T06:55:34;54.45;;;31.85;;
79361;SDS011;68830;47.566;19.012;2023-10-19T06:58:36;32.85;;;21.42;;
79361;SDS011;68830;47.566;19.012;2023-10-19T07:01:39;26.05;;;18.33;;
79361;SDS011;68830;47.566;19.012;2023-10-19T07:04:41;35.03;;;24.88;;
79361;SDS011;68830;47.566;19.012;2023-10-19T07:07:44;39.17;;;27.88;;
79361;SDS011;68830;47.566;19.012;2023-10-19T07:10:47;44.53;;;31.67;;
79361;SDS011;68830;47.566;19.012;2023-10-19T07:13:51;48.50;;;32.50;;
79361;SDS011;68830;47.566;19.012;2023-10-19T07:16:55;49.28;;;34.13;;
79361;SDS011;68830;47.566;19.012;2023-10-19T07:19:57;42.78;;;29.20;;
79361;SDS011;68830;47.566;19.012;2023-10-19T07:22:59;49.65;;;33.90;;
79361;SDS011;68830;47.566;19.012;2023-10-19T07:26:22;48.92;;;32.60;;
79361;SDS011;68830;47.566;19.012;2023-10-19T07:29:33;45.42;;;31.05;;
79361;SDS011;68830;47.566;19.012;2023-10-19T07:32:38;47.50;;;32.90;;
79361;SDS011;68830;47.566;19.012;2023-10-19T07:35:41;54.47;;;34.75;;
79361;SDS011;68830;47.566;19.012;2023-10-19T07:38:45;51.55;;;34.97;;
79361;SDS011;68830;47.566;19.012;2023-10-19T07:41:49;49.97;;;34.53;;
79361;SDS011;68830;47.566;19.012;2023-10-19T07:44:51;43.78;;;30.98;;
79361;SDS011;68830;47.566;19.012;2023-10-19T07:47:54;43.30;;;32.00;;
79361;SDS011;68830;47.566;19.012;2023-10-19T07:50:56;41.08;;;31.90;;
79361;SDS011;68830;47.566;19.012;2023-10-19T07:53:59;47.60;;;33.22;;
79361;SDS011;68830;47.566;19.012;2023-10-19T07:57:01;42.67;;;29.85;;
79361;SDS011;68830;47.566;19.012;2023-10-19T08:00:07;44.15;;;33.15;;
79361;SDS011;68830;47.566;19.012;2023-10-19T08:03:12;39.75;;;29.40;;
79361;SDS011;68830;47.566;19.012;2023-10-19T08:06:17;39.45;;;31.25;;
79361;SDS011;68830;47.566;19.012;2023-10-19T08:09:19;43.15;;;32.10;;
79361;SDS011;68830;47.566;19.012;2023-10-19T08:12:24;43.47;;;33.17;;
79361;SDS011;68830;47.566;19.012;2023-10-19T08:15:28;38.20;;;31.27;;
79361;SDS011;68830;47.566;19.012;2023-10-19T08:18:34;36.53;;;29.45;;
79361;SDS011;68830;47.566;19.012;2023-10-19T08:21:37;39.38;;;29.50;;
79361;SDS011;68830;47.566;19.012;2023-10-19T08:24:39;42.33;;;30.20;;
79361;SDS011;68830;47.566;19.012;2023-10-19T08:27:47;38.35;;;29.15;;
79361;SDS011;68830;47.566;19.012;2023-10-19T08:30:51;39.40;;;27.75;;
79361;SDS011;68830;47.566;19.012;2023-10-19T08:34:03;41.30;;;29.55;;
79361;SDS011;68830;47.566;19.012;2023-10-19T08:37:06;40.08;;;30.88;;
79361;SDS011;68830;47.566;19.012;2023-10-19T08:40:09;37.65;;;28.80;;
79361;SDS011;68830;47.566;19.012;2023-10-19T08:43:17;37.55;;;28.80;;
79361;SDS011;68830;47.566;19.012;2023-10-19T08:46:20;39.10;;;28.58;;
79361;SDS011;68830;47.566;19.012;2023-10-19T08:49:23;35.78;;;27.42;;
79361;SDS011;68830;47.566;19.012;2023-10-19T08:52:25;38.30;;;29.05;;
79361;SDS011;68830;47.566;19.012;2023-10-19T08:55:30;40.25;;;28.52;;
79361;SDS011;68830;47.566;19.012;2023-10-19T08:58:50;36.25;;;28.80;;
79361;SDS011;68830;47.566;19.012;2023-10-19T09:01:59;36.75;;;28.00;;
79361;SDS011;68830;47.566;19.012;2023-10-19T09:05:07;35.72;;;27.30;;
79361;SDS011;68830;47.566;19.012;2023-10-19T09:08:12;31.73;;;24.65;;
79361;SDS011;68830;47.566;19.012;2023-10-19T09:11:16;35.40;;;28.90;;
79361;SDS011;68830;47.566;19.012;2023-10-19T09:14:30;36.72;;;29.33;;
79361;SDS011;68830;47.566;19.012;2023-10-19T09:17:35;35.63;;;27.55;;
79361;SDS011;68830;47.566;19.012;2023-10-19T09:20:38;35.58;;;26.83;;
79361;SDS011;68830;47.566;19.012;2023-10-19T09:23:40;37.70;;;28.48;;
79361;SDS011;68830;47.566;19.012;2023-10-19T09:26:44;36.97;;;27.70;;
79361;SDS011;68830;47.566;19.012;2023-10-19T09:29:46;33.70;;;26.05;;
79361;SDS011;68830;47.566;19.012;2023-10-19T09:32:50;34.17;;;25.73;;
79361;SDS011;68830;47.566;19.012;2023-10-19T09:35:56;32.50;;;25.50;;
79361;SDS011;68830;47.566;19.012;2023-10-19T09:39:03;32.70;;;25.33;;
79361;SDS011;68830;47.566;19.012;2023-10-19T09:42:06;37.90;;;27.33;;
79361;SDS011;68830;47.566;19.012;2023-10-19T09:45:12;36.60;;;26.83;;
79361;SDS011;68830;47.566;19.012;2023-10-19T09:48:20;36.63;;;28.85;;
79361;SDS011;68830;47.566;19.012;2023-10-19T09:51:24;34.40;;;26.45;;
79361;SDS011;68830;47.566;19.012;2023-10-19T09:54:27;32.72;;;25.30;;
79361;SDS011;68830;47.566;19.012;2023-10-19T09:57:44;36.65;;;27.25;;
79361;SDS011;68830;47.566;19.012;2023-10-19T10:00:50;35.60;;;26.65;;
79361;SDS011;68830;47.566;19.012;2023-10-19T10:03:53;37.10;;;26.17;;
79361;SDS011;68830;47.566;19.012;2023-10-19T10:06:59;35.13;;;27.17;;
79361;SDS011;68830;47.566;19.012;2023-10-19T10:10:03;38.85;;;28.58;;
79361;SDS011;68830;47.566;19.012;2023-10-19T10:16:38;38.25;;;30.00;;
79361;SDS011;68830;47.566;19.012;2023-10-19T10:19:40;39.15;;;28.77;;
79361;SDS011;68830;47.566;19.012;2023-10-19T10:22:44;34.55;;;26.45;;
79361;SDS011;68830;47.566;19.012;2023-10-19T10:25:46;31.15;;;25.63;;
79361;SDS011;68830;47.566;19.012;2023-10-19T10:29:11;36.53;;;28.20;;
79361;SDS011;68830;47.566;19.012;2023-10-19T10:32:28;37.05;;;26.90;;
79361;SDS011;68830;47.566;19.012;2023-10-19T10:35:53;35.50;;;25.90;;
79361;SDS011;68830;47.566;19.012;2023-10-19T10:39:02;35.30;;;27.15;;
79361;SDS011;68830;47.566;19.012;2023-10-19T10:42:09;35.53;;;26.52;;
79361;SDS011;68830;47.566;19.012;2023-10-19T10:45:18;36.38;;;27.42;;
79361;SDS011;68830;47.566;19.012;2023-10-19T10:48:22;39.25;;;28.67;;
79361;SDS011;68830;47.566;19.012;2023-10-19T10:51:25;37.20;;;27.77;;
79361;SDS011;68830;47.566;19.012;2023-10-19T10:54:33;36.72;;;27.42;;
79361;SDS011;68830;47.566;19.012;2023-10-19T10:57:35;45.28;;;31.17;;
79361;SDS011;68830;47.566;19.012;2023-10-19T11:00:41;40.33;;;28.45;;
79361;SDS011;68830;47.566;19.012;2023-10-19T11:03:44;42.15;;;29.73;;
79361;SDS011;68830;47.566;19.012;2023-10-19T11:06:48;39.63;;;29.27;;
79361;SDS011;68830;47.566;19.012;2023-10-19T11:09:53;39.70;;;27.95;;
79361;SDS011;68830;47.566;19.012;2023-10-19T11:12:59;41.30;;;27.05;;
79361;SDS011;68830;47.566;19.012;2023-10-19T11:16:03;39.22;;;27.17;;
79361;SDS011;68830;47.566;19.012;2023-10-19T11:19:07;38.92;;;26.70;;
79361;SDS011;68830;47.566;19.012;2023-10-19T11:22:10;42.38;;;32.25;;
79361;SDS011;68830;47.566;19.012;2023-10-19T11:25:20;38.10;;;27.73;;
79361;SDS011;68830;47.566;19.012;2023-10-19T11:28:23;38.40;;;28.58;;
79361;SDS011;68830;47.566;19.012;2023-10-19T11:31:30;38.40;;;28.35;;
79361;SDS011;68830;47.566;19.012;2023-10-19T11:34:41;35.38;;;27.38;;
79361;SDS011;68830;47.566;19.012;2023-10-19T11:37:46;33.90;;;24.85;;
79361;SDS011;68830;47.566;19.012;2023-10-19T11:40:50;38.78;;;28.50;;
79361;SDS011;68830;47.566;19.012;2023-10-19T11:43:54;34.22;;;26.52;;
79361;SDS011;68830;47.566;19.012;2023-10-19T11:46:58;36.75;;;26.77;;
79361;SDS011;68830;47.566;19.012;2023-10-19T11:50:00;38.88;;;26.70;;
79361;SDS011;68830;47.566;19.012;2023-10-19T11:53:02;39.13;;;27.60;;
79361;SDS011;68830;47.566;19.012;2023-10-19T11:56:06;37.63;;;27.65;;
79361;SDS011;68830;47.566;19.012;2023-10-19T11:59:09;37.72;;;26.55;;
79361;SDS011;68830;47.566;19.012;2023-10-19T12:02:14;35.20;;;25.90;;
79361;SDS011;68830;47.566;19.012;2023-10-19T12:05:20;35.75;;;26.50;;
79361;SDS011;68830;47.566;19.012;2023-10-19T12:08:22;39.70;;;27.15;;
79361;SDS011;68830;47.566;19.012;2023-10-19T12:11:26;34.45;;;25.42;;
79361;SDS011;68830;47.566;19.012;2023-10-19T12:14:28;37.20;;;27.05;;
79361;SDS011;68830;47.566;19.012;2023-10-19T12:17:30;40.38;;;29.08;;
79361;SDS011;68830;47.566;19.012;2023-10-19T12:20:32;37.72;;;26.02;;
79361;SDS011;68830;47.566;19.012;2023-10-19T12:23:38;40.60;;;28.23;;
79361;SDS011;68830;47.566;19.012;2023-10-19T12:26:42;39.30;;;27.73;;
79361;SDS011;68830;47.566;19.012;2023-10-19T12:29:46;39.60;;;27.25;;
79361;SDS011;68830;47.566;19.012;2023-10-19T12:32:48;38.20;;;28.77;;
79361;SDS011;68830;47.566;19.012;2023-10-19T12:35:53;36.83;;;27.27;;
79361;SDS011;68830;47.566;19.012;2023-10-19T12:38:59;39.67;;;27.90;;
79361;SDS011;68830;47.566;19.012;2023-10-19T12:42:03;36.15;;;27.73;;
79361;SDS011;68830;47.566;19.012;2023-10-19T12:45:05;35.83;;;28.92;;
79361;SDS011;68830;47.566;19.012;2023-10-19T12:48:09;37.35;;;29.45;;
79361;SDS011;68830;47.566;19.012;2023-10-19T12:51:12;38.42;;;28.88;;
79361;SDS011;68830;47.566;19.012;2023-10-19T12:54:16;38.28;;;27.30;;
79361;SDS011;68830;47.566;19.012;2023-10-19T12:57:19;37.55;;;26.77;;
79361;SDS011;68830;47.566;19.012;2023-10-19T13:00:21;38.63;;;28.30;;
79361;SDS011;68830;47.566;19.012;2023-10-19T13:06:33;42.25;;;28.73;;
79361;SDS011;68830;47.566;19.012;2023-10-19T13:09:37;42.42;;;27.02;;
79361;SDS011;68830;47.566;19.012;2023-10-19T13:12:40;40.80;;;27.65;;
79361;SDS011;68830;47.566;19.012;2023-10-19T13:15:44;39.00;;;30.73;;
79361;SDS011;68830;47.566;19.012;2023-10-19T13:18:47;35.33;;;25.73;;
79361;SDS011;68830;47.566;19.012;2023-10-19T13:21:51;39.28;;;28.33;;
79361;SDS011;68830;47.566;19.012;2023-10-19T13:24:54;41.80;;;27.85;;
79361;SDS011;68830;47.566;19.012;2023-10-19T13:27:58;37.63;;;27.80;;
79361;SDS011;68830;47.566;19.012;2023-10-19T13:31:01;41.03;;;27.98;;
79361;SDS011;68830;47.566;19.012;2023-10-19T13:34:05;41.55;;;28.70;;
79361;SDS011;68830;47.566;19.012;2023-10-19T13:37:12;41.95;;;29.48;;
79361;SDS011;68830;47.566;19.012;2023-10-19T13:40:14;39.70;;;28.50;;
79361;SDS011;68830;47.566;19.012;2023-10-19T13:43:18;39.38;;;29.67;;
79361;SDS011;68830;47.566;19.012;2023-10-19T13:46:21;36.15;;;27.25;;
79361;SDS011;68830;47.566;19.012;2023-10-19T13:49:25;34.38;;;26.77;;
79361;SDS011;68830;47.566;19.012;2023-10-19T13:52:27;40.42;;;29.25;;
79361;SDS011;68830;47.566;19.012;2023-10-19T13:55:29;40.45;;;29.98;;
79361;SDS011;68830;47.566;19.012;2023-10-19T13:58:33;38.15;;;30.45;;
79361;SDS011;68830;47.566;19.012;2023-10-19T14:01:36;39.05;;;27.85;;
79361;SDS011;68830;47.566;19.012;2023-10-19T14:04:39;43.05;;;29.20;;
79361;SDS011;68830;47.566;19.012;2023-10-19T14:07:41;39.08;;;28.83;;
79361;SDS011;68830;47.566;19.012;2023-10-19T14:10:45;37.97;;;28.50;;
79361;SDS011;68830;47.566;19.012;2023-10-19T14:13:49;36.85;;;29.85;;
79361;SDS011;68830;47.566;19.012;2023-10-19T14:19:57;40.35;;;31.23;;
79361;SDS011;68830;47.566;19.012;2023-10-19T14:23:00;36.70;;;29.40;;
79361;SDS011;68830;47.566;19.012;2023-10-19T14:26:03;37.90;;;29.70;;
79361;SDS011;68830;47.566;19.012;2023-10-19T14:29:06;35.92;;;28.80;;
79361;SDS011;68830;47.566;19.012;2023-10-19T14:32:09;41.75;;;30.88;;
79361;SDS011;68830;47.566;19.012;2023-10-19T14:35:11;40.60;;;31.70;;
79361;SDS011;68830;47.566;19.012;2023-10-19T14:38:13;42.15;;;31.63;;
79361;SDS011;68830;47.566;19.012;2023-10-19T14:41:17;39.15;;;29.70;;
79361;SDS011;68830;47.566;19.012;2023-10-19T14:44:21;41.28;;;31.80;;
79361;SDS011;68830;47.566;19.012;2023-10-19T14:47:24;40.58;;;31.48;;
79361;SDS011;68830;47.566;19.012;2023-10-19T14:50:26;43.72;;;31.88;;
79361;SDS011;68830;47.566;19.012;2023-10-19T14:53:28;41.15;;;30.23;;
79361;SDS011;68830;47.566;19.012;2023-10-19T14:56:31;42.60;;;30.73;;
79361;SDS011;68830;47.566;19.012;2023-10-19T14:59:34;47.28;;;35.42;;
79361;SDS011;68830;47.566;19.012;2023-10-19T15:02:39;48.55;;;31.55;;
79361;SDS011;68830;47.566;19.012;2023-10-19T15:05:40;45.40;;;33.03;;
79361;SDS011;68830;47.566;19.012;2023-10-19T15:08:44;52.50;;;34.42;;
79361;SDS011;68830;47.566;19.012;2023-10-19T15:11:47;49.55;;;35.08;;
79361;SDS011;68830;47.566;19.012;2023-10-19T15:14:51;48.53;;;33.22;;
79361;SDS011;68830;47.566;19.012;2023-10-19T15:17:54;48.00;;;34.22;;
79361;SDS011;68830;47.566;19.012;2023-10-19T15:20:56;50.03;;;34.88;;
79361;SDS011;68830;47.566;19.012;2023-10-19T15:24:08;53.25;;;35.42;;
79361;SDS011;68830;47.566;19.012;2023-10-19T15:27:13;54.45;;;35.38;;
79361;SDS011;68830;47.566;19.012;2023-10-19T15:30:18;51.08;;;34.75;;
79361;SDS011;68830;47.566;19.012;2023-10-19T15:33:24;51.13;;;34.38;;
79361;SDS011;68830;47.566;19.012;2023-10-19T15:36:28;49.80;;;33.47;;
79361;SDS011;68830;47.566;19.012;2023-10-19T15:39:29;54.38;;;35.10;;
79361;SDS011;68830;47.566;19.012;2023-10-19T15:42:32;54.22;;;36.00;;
79361;SDS011;68830;47.566;19.012;2023-10-19T15:45:39;53.30;;;35.38;;
79361;SDS011;68830;47.566;19.012;2023-10-19T15:48:45;61.65;;;36.80;;
79361;SDS011;68830;47.566;19.012;2023-10-19T15:51:50;53.83;;;35.70;;
79361;SDS011;68830;47.566;19.012;2023-10-19T15:54:54;52.88;;;35.90;;
79361;SDS011;68830;47.566;19.012;2023-10-19T15:57:56;63.20;;;37.25;;
79361;SDS011;68830;47.566;19.012;2023-10-19T16:00:59;58.70;;;35.80;;
79361;SDS011;68830;47.566;19.012;2023-10-19T16:04:01;56.97;;;35.67;;
79361;SDS011;68830;47.566;19.012;2023-10-19T16:07:04;59.83;;;35.42;;
79361;SDS011;68830;47.566;19.012;2023-10-19T16:10:07;56.13;;;37.03;;
79361;SDS011;68830;47.566;19.012;2023-10-19T16:13:12;55.22;;;33.47;;
79361;SDS011;68830;47.566;19.012;2023-10-19T16:16:17;62.63;;;36.58;;
79361;SDS011;68830;47.566;19.012;2023-10-19T16:19:23;53.22;;;36.33;;
79361;SDS011;68830;47.566;19.012;2023-10-19T16:22:26;57.22;;;35.63;;
79361;SDS011;68830;47.566;19.012;2023-10-19T16:25:28;64.70;;;36.40;;
79361;SDS011;68830;47.566;19.012;2023-10-19T16:28:31;63.72;;;37.13;;
79361;SDS011;68830;47.566;19.012;2023-10-19T16:31:36;59.47;;;37.70;;
79361;SDS011;68830;47.566;19.012;2023-10-19T16:34:42;58.90;;;36.80;;
79361;SDS011;68830;47.566;19.012;2023-10-19T16:37:46;63.47;;;38.35;;
79361;SDS011;68830;47.566;19.012;2023-10-19T16:40:57;52.33;;;33.60;;
79361;SDS011;68830;47.566;19.012;2023-10-19T16:44:03;61.10;;;36.22;;
79361;SDS011;68830;47.566;19.012;2023-10-19T16:47:08;65.32;;;39.55;;
79361;SDS011;68830;47.566;19.012;2023-10-19T16:50:14;57.65;;;35.53;;
79361;SDS011;68830;47.566;19.012;2023-10-19T16:53:22;65.07;;;39.63;;
79361;SDS011;68830;47.566;19.012;2023-10-19T16:56:26;59.47;;;37.17;;
79361;SDS011;68830;47.566;19.012;2023-10-19T16:59:30;65.18;;;37.28;;
79361;SDS011;68830;47.566;19.012;2023-10-19T17:02:36;59.42;;;38.35;;
79361;SDS011;68830;47.566;19.012;2023-10-19T17:05:41;67.35;;;38.95;;
79361;SDS011;68830;47.566;19.012;2023-10-19T17:08:45;64.10;;;38.22;;
79361;SDS011;68830;47.566;19.012;2023-10-19T17:11:49;62.97;;;37.75;;
79361;SDS011;68830;47.566;19.012;2023-10-19T17:14:57;63.50;;;36.97;;
79361;SDS011;68830;47.566;19.012;2023-10-19T17:18:07;65.45;;;38.40;;
79361;SDS011;68830;47.566;19.012;2023-10-19T17:21:11;58.17;;;35.40;;
79361;SDS011;68830;47.566;19.012;2023-10-19T17:24:15;60.38;;;36.03;;
79361;SDS011;68830;47.566;19.012;2023-10-19T17:27:19;55.80;;;35.28;;
79361;SDS011;68830;47.566;19.012;2023-10-19T17:30:37;67.50;;;38.35;;
79361;SDS011;68830;47.566;19.012;2023-10-19T17:33:48;57.95;;;36.13;;
79361;SDS011;68830;47.566;19.012;2023-10-19T17:36:53;54.40;;;34.20;;
79361;SDS011;68830;47.566;19.012;2023-10-19T17:39:58;56.83;;;36.13;;
79361;SDS011;68830;47.566;19.012;2023-10-19T17:43:01;60.85;;;37.38;;
79361;SDS011;68830;47.566;19.012;2023-10-19T17:46:09;60.25;;;38.20;;
79361;SDS011;68830;47.566;19.012;2023-10-19T17:49:18;57.40;;;36.30;;
79361;SDS011;68830;47.566;19.012;2023-10-19T17:52:22;59.22;;;35.78;;
79361;SDS011;68830;47.566;19.012;2023-10-19T17:55:25;55.42;;;34.83;;
79361;SDS011;68830;47.566;19.012;2023-10-19T17:58:31;60.80;;;35.65;;
79361;SDS011;68830;47.566;19.012;2023-10-19T18:01:36;61.92;;;36.30;;
79361;SDS011;68830;47.566;19.012;2023-10-19T18:04:52;59.28;;;35.30;;